Time;durP1;ratioP1;P1;durP2;ratioP2;P2;SDS_P1;SDS_P2;PMS_P1;PMS_P2;Temp;Humidity;BMP_temperature;BMP_pressure;BME280_temperature;BME280_humidity;BME280_pressure;Samples;Min_cycle;Max_cycle;Signal;HPM_P1;HPM_P2
2022/04/18 00:02:20;;;;;;;12.45;8.40;;;12.60;99.90;;;;;;5032770;28;20034;-79
2022/04/18 00:04:45;;;;;;;14.68;9.40;;;12.60;99.90;;;;;;5032561;28;20021;-79
2022/04/18 00:07:11;;;;;;;17.10;9.35;;;12.50;99.90;;;;;;5044955;28;20021;-79
2022/04/18 00:09:37;;;;;;;19.00;10.68;;;12.40;99.90;;;;;;5052537;28;20025;-80
2022/04/18 00:12:04;;;;;;;18.80;10.60;;;12.30;99.90;;;;;;5018130;28;20025;-80
2022/04/18 00:14:30;;;;;;;18.25;11.05;;;12.30;99.90;;;;;;5037505;28;20206;-80
2022/04/18 00:16:56;;;;;;;15.23;11.00;;;12.40;99.90;;;;;;5052509;28;20109;-79
2022/04/18 00:19:22;;;;;;;20.63;11.32;;;12.30;99.90;;;;;;5052212;28;20388;-80
2022/04/18 00:21:47;;;;;;;17.48;11.35;;;12.30;99.90;;;;;;5051814;28;20025;-79
2022/04/18 00:24:14;;;;;;;21.48;12.70;;;12.20;99.90;;;;;;5036371;28;20087;-79
2022/04/18 00:26:40;;;;;;;22.38;12.95;;;12.20;99.90;;;;;;5014757;28;20539;-79
2022/04/18 00:29:06;;;;;;;19.77;11.00;;;12.10;99.90;;;;;;5032382;28;20029;-80
2022/04/18 00:31:32;;;;;;;21.35;12.18;;;12.10;99.90;;;;;;5032488;28;20120;-80
2022/04/18 00:33:58;;;;;;;23.90;12.35;;;12.00;99.90;;;;;;5032057;28;20101;-80
2022/04/18 00:36:25;;;;;;;26.85;12.80;;;12.00;99.90;;;;;;5032218;28;20050;-80
2022/04/18 00:38:51;;;;;;;22.60;14.52;;;11.90;99.90;;;;;;5032626;28;20038;-80
2022/04/18 00:41:16;;;;;;;24.23;13.00;;;12.00;99.90;;;;;;5032658;28;20029;-80
2022/04/18 00:43:47;;;;;;;24.88;13.65;;;12.00;99.90;;;;;;5032652;28;20061;-80
2022/04/18 00:46:15;;;;;;;22.20;12.80;;;11.90;99.90;;;;;;5032287;28;20021;-80
2022/04/18 00:48:41;;;;;;;22.02;14.32;;;11.90;99.90;;;;;;5032362;28;20030;-79
2022/04/18 00:51:11;;;;;;;20.42;13.43;;;11.80;99.90;;;;;;5032728;28;20022;-80
2022/04/18 00:53:40;;;;;;;20.80;13.48;;;11.80;99.90;;;;;;5032270;28;20100;-80
2022/04/18 00:56:07;;;;;;;21.90;14.63;;;11.80;99.90;;;;;;5031892;28;20108;-80
2022/04/18 00:58:33;;;;;;;24.52;13.88;;;11.80;99.90;;;;;;5014555;28;20033;-80
2022/04/18 01:00:59;;;;;;;22.45;14.80;;;11.90;99.90;;;;;;5032314;28;20025;-80
2022/04/18 01:03:26;;;;;;;23.65;13.50;;;11.90;99.90;;;;;;5015002;28;20030;-80
2022/04/18 01:05:51;;;;;;;26.40;13.65;;;11.80;99.90;;;;;;5036091;28;20428;-80
2022/04/18 01:08:17;;;;;;;24.27;14.15;;;11.90;99.90;;;;;;5035683;28;20147;-79
2022/04/18 01:10:45;;;;;;;25.20;14.10;;;11.80;99.90;;;;;;5035635;28;20025;-80
2022/04/18 01:13:11;;;;;;;24.58;14.68;;;11.80;99.90;;;;;;5035821;28;20022;-79
2022/04/18 01:15:37;;;;;;;25.08;13.98;;;11.80;99.90;;;;;;5035417;28;20029;-79
2022/04/18 01:18:02;;;;;;;22.55;13.73;;;11.90;99.90;;;;;;5035485;28;20025;-79
2022/04/18 01:20:37;;;;;;;22.80;13.95;;;11.90;99.90;;;;;;5035751;28;20121;-79
2022/04/18 01:23:06;;;;;;;24.48;14.13;;;11.90;99.90;;;;;;5035742;28;20033;-79
2022/04/18 01:31:01;;;;;;;25.58;13.93;;;11.90;99.90;;;;;;5035533;28;20032;-80
2022/04/18 01:33:27;;;;;;;22.85;12.73;;;12.00;99.90;;;;;;5034898;28;20030;-80
2022/04/18 01:35:52;;;;;;;27.42;15.05;;;11.90;99.90;;;;;;5035576;28;20440;-80
2022/04/18 01:38:18;;;;;;;23.58;14.57;;;11.80;99.90;;;;;;5035209;28;20025;-80
2022/04/18 01:40:44;;;;;;;26.98;14.80;;;11.80;99.90;;;;;;5035560;28;20456;-80
2022/04/18 01:43:10;;;;;;;25.55;15.40;;;11.80;99.90;;;;;;5035329;28;20558;-80
2022/04/18 01:45:35;;;;;;;23.48;14.35;;;11.90;99.90;;;;;;5034445;28;20029;-80
2022/04/18 01:48:01;;;;;;;21.52;14.05;;;12.00;99.90;;;;;;5035233;28;20496;-79
2022/04/18 01:50:27;;;;;;;24.90;14.00;;;12.00;99.90;;;;;;5035364;28;20393;-80
2022/04/18 01:52:53;;;;;;;24.20;14.80;;;12.00;99.90;;;;;;5017804;28;20029;-80
2022/04/18 01:55:19;;;;;;;24.95;14.68;;;11.90;99.90;;;;;;5034917;28;20523;-80
2022/04/18 01:57:44;;;;;;;25.70;15.32;;;12.00;99.90;;;;;;5035134;28;20036;-80
2022/04/18 02:00:10;;;;;;;23.92;14.52;;;11.90;99.90;;;;;;5042267;28;20096;-79
2022/04/18 02:02:36;;;;;;;19.55;13.32;;;11.90;99.90;;;;;;5054611;28;20032;-80
2022/04/18 02:05:04;;;;;;;23.05;14.55;;;12.00;99.90;;;;;;5036839;28;20052;-80
2022/04/18 02:07:30;;;;;;;22.08;14.60;;;11.90;99.90;;;;;;5054930;28;20387;-80
2022/04/18 02:09:55;;;;;;;21.60;14.25;;;12.00;99.90;;;;;;5035096;28;20097;-79
2022/04/18 02:12:21;;;;;;;26.00;14.52;;;11.90;99.90;;;;;;5034628;28;20370;-80
2022/04/18 02:14:47;;;;;;;24.27;15.07;;;11.90;99.90;;;;;;5033634;28;20024;-79
2022/04/18 02:17:13;;;;;;;20.92;13.00;;;11.80;99.90;;;;;;5034637;28;20032;-80
2022/04/18 02:19:38;;;;;;;26.98;13.32;;;11.80;99.90;;;;;;5034768;28;20437;-79
2022/04/18 02:22:05;;;;;;;20.58;13.02;;;11.70;99.90;;;;;;5016791;28;20104;-79
2022/04/18 02:24:31;;;;;;;22.17;13.95;;;11.70;99.90;;;;;;5034580;28;20155;-80
2022/04/18 02:26:57;;;;;;;24.48;14.65;;;11.60;99.90;;;;;;5034541;28;20061;-79
2022/04/18 02:29:23;;;;;;;24.33;14.20;;;11.60;99.90;;;;;;5043877;28;20546;-79
2022/04/18 02:34:33;;;;;;;28.15;14.60;;;11.60;99.90;;;;;;5033869;28;20028;-80
2022/04/18 02:36:59;;;;;;;30.88;15.38;;;11.50;99.90;;;;;;5034243;28;20150;-80
2022/04/18 02:39:25;;;;;;;18.85;12.50;;;11.60;99.90;;;;;;5033981;28;20026;-80
2022/04/18 02:41:50;;;;;;;29.58;13.27;;;11.60;99.90;;;;;;5034380;28;20156;-80
2022/04/18 02:44:16;;;;;;;20.58;12.60;;;11.60;99.90;;;;;;5033974;28;20075;-79
2022/04/18 02:46:42;;;;;;;23.65;12.93;;;11.50;99.90;;;;;;5034075;28;20556;-80
2022/04/18 02:49:07;;;;;;;25.67;13.00;;;11.50;99.90;;;;;;5048251;28;20554;-80
2022/04/18 02:51:33;;;;;;;22.08;13.85;;;11.50;99.90;;;;;;5053860;28;20487;-80
2022/04/18 02:53:59;;;;;;;23.20;12.32;;;11.60;99.90;;;;;;5036032;28;20469;-79
2022/04/18 02:56:25;;;;;;;20.05;12.38;;;11.70;99.90;;;;;;5053263;28;20029;-80
2022/04/18 02:58:51;;;;;;;23.00;12.68;;;11.70;99.90;;;;;;5053797;28;20104;-80
2022/04/18 03:01:16;;;;;;;21.45;12.90;;;11.70;99.90;;;;;;5053820;28;20036;-79
2022/04/18 03:03:42;;;;;;;19.88;11.90;;;11.70;99.90;;;;;;5053593;28;20028;-80
2022/04/18 03:06:08;;;;;;;21.98;11.82;;;11.70;99.90;;;;;;5053995;28;20074;-80
2022/04/18 03:08:33;;;;;;;20.75;12.93;;;11.70;99.90;;;;;;5053744;28;20025;-79
2022/04/18 03:11:06;;;;;;;21.38;11.85;;;11.60;99.90;;;;;;5053698;28;20025;-80
2022/04/18 03:13:33;;;;;;;22.27;13.43;;;11.60;99.90;;;;;;5019601;28;20018;-80
2022/04/18 03:15:59;;;;;;;20.00;13.07;;;11.60;99.90;;;;;;5033672;28;20079;-80
2022/04/18 03:18:26;;;;;;;21.80;11.93;;;11.60;99.90;;;;;;5033326;28;20135;-79
2022/04/18 03:20:52;;;;;;;23.33;12.30;;;11.60;99.90;;;;;;5015910;28;20034;-80
2022/04/18 03:23:18;;;;;;;16.98;12.38;;;11.60;99.90;;;;;;5033328;28;20690;-79
2022/04/18 03:25:43;;;;;;;23.10;12.02;;;11.60;99.90;;;;;;5032488;28;20766;-80
2022/04/18 03:28:09;;;;;;;17.73;11.80;;;11.60;99.90;;;;;;5032814;28;20382;-80
2022/04/18 03:30:35;;;;;;;19.75;11.73;;;11.60;99.90;;;;;;5015498;28;20393;-80
2022/04/18 03:33:01;;;;;;;19.00;12.02;;;11.60;99.90;;;;;;5033339;28;20017;-80
2022/04/18 03:35:28;;;;;;;20.88;12.13;;;11.60;99.90;;;;;;5032577;28;20036;-80
2022/04/18 03:40:38;;;;;;;22.30;11.90;;;11.50;99.90;;;;;;5033024;28;20083;-80
2022/04/18 03:43:04;;;;;;;21.45;11.35;;;11.60;99.90;;;;;;5033141;28;20026;-80
2022/04/18 03:45:30;;;;;;;20.20;11.38;;;11.50;99.90;;;;;;5033881;28;20044;-79
2022/04/18 03:47:55;;;;;;;17.90;11.60;;;11.50;99.90;;;;;;5032840;28;20014;-79
2022/04/18 03:50:21;;;;;;;19.15;11.52;;;11.60;99.90;;;;;;5044183;28;20048;-80
2022/04/18 03:52:47;;;;;;;26.75;11.75;;;11.50;99.90;;;;;;5052650;28;20025;-80
2022/04/18 03:55:12;;;;;;;19.63;11.80;;;11.60;99.90;;;;;;5028561;28;20473;-79
2022/04/18 03:57:38;;;;;;;24.50;12.60;;;11.50;99.90;;;;;;5032974;28;20481;-80
2022/04/18 04:00:07;;;;;;;20.33;11.57;;;11.70;99.90;;;;;;5015514;28;20053;-79
2022/04/18 04:02:33;;;;;;;16.63;11.45;;;11.60;99.90;;;;;;5032008;28;20397;-79
2022/04/18 04:04:59;;;;;;;19.02;10.95;;;11.60;99.90;;;;;;5032600;28;20025;-80
2022/04/18 04:07:25;;;;;;;20.05;10.75;;;11.70;99.90;;;;;;5032904;28;20018;-80
2022/04/18 04:09:50;;;;;;;18.23;10.60;;;11.60;99.90;;;;;;5032445;28;20036;-80
2022/04/18 04:12:26;;;;;;;22.17;11.73;;;11.60;99.90;;;;;;5015123;28;20018;-80
2022/04/18 04:14:55;;;;;;;20.92;11.15;;;11.60;99.90;;;;;;5032750;28;20037;-80
2022/04/18 04:17:23;;;;;;;21.27;11.40;;;11.60;99.90;;;;;;5032544;28;20519;-80
2022/04/18 04:19:50;;;;;;;17.90;10.63;;;11.60;99.90;;;;;;5032612;28;20685;-80
2022/04/18 04:22:15;;;;;;;22.02;10.80;;;11.60;99.90;;;;;;5032868;28;20025;-80
2022/04/18 04:24:41;;;;;;;19.40;10.18;;;11.60;99.90;;;;;;5032332;28;20026;-79
2022/04/18 04:27:07;;;;;;;19.05;12.05;;;11.60;99.90;;;;;;5032869;28;20032;-80
2022/04/18 04:29:33;;;;;;;18.40;10.40;;;11.60;99.90;;;;;;5032622;28;20540;-80
2022/04/18 04:31:58;;;;;;;22.30;11.10;;;11.60;99.90;;;;;;5019088;28;20037;-80
2022/04/18 04:34:24;;;;;;;17.08;10.35;;;11.50;99.90;;;;;;5032396;28;20366;-80
2022/04/18 04:36:50;;;;;;;18.80;10.70;;;11.60;99.90;;;;;;5031835;28;20123;-80
2022/04/18 04:39:17;;;;;;;23.77;11.35;;;11.60;99.90;;;;;;5018169;28;20036;-79
2022/04/18 04:41:43;;;;;;;19.23;11.15;;;11.50;99.90;;;;;;5036278;28;20029;-80
2022/04/18 04:44:08;;;;;;;19.15;11.38;;;11.60;99.90;;;;;;5036589;28;20040;-80
2022/04/18 04:46:35;;;;;;;27.10;12.20;;;11.60;99.90;;;;;;5035901;28;20060;-80
2022/04/18 04:49:00;;;;;;;18.33;10.32;;;11.60;99.90;;;;;;5036572;28;20026;-79
2022/04/18 04:51:26;;;;;;;19.25;11.35;;;11.60;99.90;;;;;;5036358;28;20028;-80
2022/04/18 04:53:52;;;;;;;19.40;10.57;;;11.60;99.90;;;;;;5036018;28;20151;-79
2022/04/18 04:56:17;;;;;;;14.32;10.30;;;11.60;99.90;;;;;;5053369;28;20059;-80
2022/04/18 04:58:43;;;;;;;21.08;10.70;;;11.60;99.90;;;;;;5055847;28;20056;-80
2022/04/18 05:01:09;;;;;;;19.90;10.15;;;11.60;99.90;;;;;;5056105;28;20029;-80
2022/04/18 05:03:35;;;;;;;20.73;10.10;;;11.60;99.90;;;;;;5052558;28;20034;-79
2022/04/18 05:06:01;;;;;;;17.83;10.43;;;11.70;99.90;;;;;;5047658;28;20032;-80
2022/04/18 05:08:27;;;;;;;16.80;9.90;;;11.60;99.90;;;;;;5048060;28;20033;-80
2022/04/18 05:10:54;;;;;;;20.27;11.30;;;11.60;99.90;;;;;;5035892;28;20022;-79
2022/04/18 05:13:22;;;;;;;21.92;9.95;;;11.70;99.90;;;;;;5035604;28;20026;-80
2022/04/18 05:15:48;;;;;;;17.48;10.43;;;11.70;99.90;;;;;;5018038;28;20022;-80
2022/04/18 05:18:14;;;;;;;20.40;10.80;;;11.70;99.90;;;;;;5035825;28;20036;-80
2022/04/18 05:20:39;;;;;;;17.42;10.20;;;11.60;99.90;;;;;;5035711;28;20036;-80
2022/04/18 05:23:05;;;;;;;22.05;9.45;;;11.60;99.90;;;;;;5035261;28;20033;-80
2022/04/18 05:25:31;;;;;;;18.33;10.25;;;11.60;99.90;;;;;;5029489;28;20036;-79
2022/04/18 05:27:57;;;;;;;17.02;9.63;;;11.70;99.90;;;;;;5038624;28;20057;-80
2022/04/18 05:30:23;;;;;;;19.40;9.70;;;11.60;99.90;;;;;;5035711;28;20477;-80
2022/04/18 05:32:49;;;;;;;22.25;10.07;;;11.60;99.90;;;;;;5017727;28;20021;-79
2022/04/18 05:35:15;;;;;;;12.93;8.43;;;11.60;99.90;;;;;;5035215;28;20385;-79
2022/04/18 05:37:41;;;;;;;16.33;9.10;;;11.60;99.90;;;;;;5035416;28;20135;-80
2022/04/18 05:40:07;;;;;;;17.10;9.93;;;11.70;99.90;;;;;;5035417;28;20029;-79
2022/04/18 05:42:33;;;;;;;17.38;9.38;;;11.80;99.90;;;;;;5035483;28;20396;-79
2022/04/18 05:44:59;;;;;;;18.65;9.48;;;11.80;99.90;;;;;;5035090;28;20018;-79
2022/04/18 05:47:24;;;;;;;18.45;9.95;;;11.80;99.90;;;;;;5043977;28;20061;-79
2022/04/18 05:49:50;;;;;;;12.60;8.77;;;11.80;99.90;;;;;;5034374;28;20057;-80
2022/04/18 05:52:16;;;;;;;16.42;8.75;;;11.80;99.90;;;;;;5035105;28;20032;-80
2022/04/18 05:54:42;;;;;;;16.38;8.52;;;11.80;99.90;;;;;;5017230;28;20021;-79
2022/04/18 05:57:07;;;;;;;12.85;8.32;;;11.80;99.90;;;;;;5035048;28;20041;-79
2022/04/18 05:59:33;;;;;;;15.57;8.52;;;11.80;99.90;;;;;;5035029;28;20025;-79
2022/04/18 06:01:59;;;;;;;18.75;8.07;;;11.80;99.90;;;;;;5016906;28;20040;-79
2022/04/18 06:04:25;;;;;;;14.38;9.07;;;11.90;99.90;;;;;;5035178;28;20026;-79
2022/04/18 06:06:50;;;;;;;13.00;7.47;;;11.90;99.90;;;;;;5034672;28;20112;-79
2022/04/18 06:09:16;;;;;;;16.45;8.10;;;11.90;99.90;;;;;;5034973;28;20026;-79
2022/04/18 06:11:42;;;;;;;16.83;8.48;;;12.00;99.90;;;;;;5034527;28;20080;-79
2022/04/18 06:14:10;;;;;;;10.77;7.22;;;12.00;99.90;;;;;;5040437;28;20024;-80
2022/04/18 06:16:36;;;;;;;12.10;7.93;;;12.10;99.90;;;;;;5034972;28;20037;-80
2022/04/18 06:19:01;;;;;;;21.48;8.82;;;12.10;99.90;;;;;;5034207;28;20076;-79
2022/04/18 06:21:27;;;;;;;17.83;8.00;;;12.10;99.90;;;;;;5034508;28;20483;-79
2022/04/18 06:23:53;;;;;;;14.18;7.68;;;12.10;99.90;;;;;;5034371;28;20433;-80
2022/04/18 06:26:18;;;;;;;15.68;8.00;;;12.10;99.90;;;;;;5034670;28;20029;-79
2022/04/18 06:28:44;;;;;;;18.13;8.32;;;12.10;99.90;;;;;;5034584;28;20097;-80
2022/04/18 06:31:10;;;;;;;15.27;7.57;;;12.10;99.90;;;;;;5034529;28;20048;-79
2022/04/18 06:33:35;;;;;;;16.25;7.97;;;12.10;99.90;;;;;;5034501;28;20021;-80
2022/04/18 06:36:02;;;;;;;12.60;7.57;;;12.30;99.90;;;;;;5033636;28;20398;-80
2022/04/18 06:38:28;;;;;;;18.02;8.48;;;12.20;99.90;;;;;;5034396;28;20040;-80
2022/04/18 06:40:58;;;;;;;14.25;7.13;;;12.20;99.90;;;;;;5034148;28;20025;-79
2022/04/18 06:43:24;;;;;;;13.50;8.20;;;12.20;99.90;;;;;;5016497;28;20397;-80
2022/04/18 06:45:49;;;;;;;17.55;8.10;;;12.20;99.90;;;;;;5033781;28;20040;-80
2022/04/18 06:48:15;;;;;;;12.50;7.70;;;12.20;99.90;;;;;;5034027;28;20104;-80
2022/04/18 06:50:41;;;;;;;14.23;7.05;;;12.30;99.90;;;;;;5033755;28;20022;-80
2022/04/18 06:53:08;;;;;;;12.63;8.07;;;12.40;99.90;;;;;;5034148;28;20068;-80
2022/04/18 06:58:19;;;;;;;14.45;6.88;;;12.50;99.90;;;;;;5034352;28;20031;-80
2022/04/18 07:00:44;;;;;;;14.00;7.15;;;12.50;99.90;;;;;;5045473;28;20021;-80
2022/04/18 07:03:10;;;;;;;13.85;7.43;;;12.40;99.90;;;;;;5033703;28;20029;-80
2022/04/18 07:05:36;;;;;;;14.00;7.38;;;12.50;99.90;;;;;;5033667;28;20041;-79
2022/04/18 07:08:01;;;;;;;12.70;7.65;;;12.60;99.90;;;;;;5033871;28;20497;-79
2022/04/18 07:10:27;;;;;;;12.35;7.53;;;12.70;99.90;;;;;;5038266;28;20479;-79
2022/04/18 07:12:53;;;;;;;13.32;7.03;;;12.90;99.90;;;;;;5044816;28;20033;-79
2022/04/18 07:15:18;;;;;;;16.50;7.45;;;12.90;99.90;;;;;;5043431;28;20036;-79
2022/04/18 07:17:44;;;;;;;13.20;7.88;;;13.00;99.90;;;;;;5052390;28;20076;-79
2022/04/18 07:20:10;;;;;;;12.27;7.35;;;13.00;99.90;;;;;;5052997;28;20037;-79
2022/04/18 07:22:39;;;;;;;15.93;7.47;;;13.00;99.90;;;;;;5053323;28;20032;-79
2022/04/18 07:25:06;;;;;;;13.77;7.40;;;13.10;99.90;;;;;;5052966;28;20614;-79
2022/04/18 07:27:31;;;;;;;13.80;7.75;;;13.00;99.90;;;;;;5051064;28;20036;-79
2022/04/18 07:29:57;;;;;;;15.40;7.80;;;13.20;99.90;;;;;;5039558;28;20466;-80
2022/04/18 07:32:23;;;;;;;15.60;7.38;;;13.10;99.90;;;;;;5033172;28;20057;-79
2022/04/18 07:34:48;;;;;;;13.38;7.68;;;13.20;99.90;;;;;;5043665;28;20025;-79
2022/04/18 07:37:14;;;;;;;14.45;7.90;;;13.20;99.90;;;;;;5052729;28;20049;-79
2022/04/18 07:39:40;;;;;;;14.65;7.38;;;13.10;99.90;;;;;;5035405;28;20029;-79
2022/04/18 07:42:06;;;;;;;14.93;8.02;;;13.10;99.90;;;;;;5053130;28;20387;-79
2022/04/18 07:44:31;;;;;;;16.08;7.60;;;12.90;99.90;;;;;;5046917;28;20047;-79
2022/04/18 07:46:58;;;;;;;12.73;7.45;;;12.90;99.90;;;;;;5015601;28;20447;-79
2022/04/18 07:49:24;;;;;;;16.83;7.65;;;12.80;99.90;;;;;;5033114;28;20049;-79
2022/04/18 07:51:50;;;;;;;16.05;7.78;;;12.80;99.90;;;;;;5033391;28;20100;-84
2022/04/18 07:54:17;;;;;;;11.98;7.75;;;12.80;99.90;;;;;;5033715;28;20476;-80
2022/04/18 07:56:43;;;;;;;10.73;7.32;;;12.80;99.90;;;;;;5036003;28;20022;-79
2022/04/18 07:59:09;;;;;;;16.55;7.13;;;12.70;99.90;;;;;;5032435;28;20025;-80
2022/04/18 08:01:35;;;;;;;15.90;7.40;;;12.70;99.90;;;;;;5015044;28;20079;-79
2022/04/18 08:04:01;;;;;;;13.52;7.78;;;12.70;99.90;;;;;;5032872;28;20437;-78
2022/04/18 08:06:32;;;;;;;12.00;7.00;;;12.60;99.90;;;;;;5035492;28;20056;-79
2022/04/18 08:08:59;;;;;;;14.82;7.60;;;12.70;99.90;;;;;;5045986;28;20021;-80
2022/04/18 08:11:25;;;;;;;14.50;7.70;;;12.70;99.90;;;;;;5044147;28;20021;-79
2022/04/18 08:13:51;;;;;;;13.55;7.65;;;12.90;99.90;;;;;;5014715;28;20029;-78
2022/04/18 08:16:18;;;;;;;12.45;7.43;;;12.80;99.90;;;;;;5033341;28;20025;-79
2022/04/18 08:18:45;;;;;;;10.68;7.05;;;13.00;99.90;;;;;;5042883;28;20481;-78
2022/04/18 08:21:15;;;;;;;13.95;8.25;;;12.90;99.90;;;;;;5048931;28;20025;-80
2022/04/18 08:23:46;;;;;;;12.48;7.80;;;13.00;99.90;;;;;;5052565;28;20052;-83
2022/04/18 08:26:12;;;;;;;13.00;7.43;;;13.10;99.90;;;;;;5052484;28;20025;-86
2022/04/18 08:28:39;;;;;;;13.57;7.55;;;13.20;99.90;;;;;;5034599;28;20392;-81
2022/04/18 08:31:05;;;;;;;14.60;7.28;;;13.30;99.90;;;;;;5034338;28;20481;-81
2022/04/18 08:33:31;;;;;;;14.45;7.35;;;13.20;99.90;;;;;;5038137;28;20021;-83
2022/04/18 08:35:58;;;;;;;15.32;8.07;;;13.10;99.90;;;;;;5031764;28;20037;-81
2022/04/18 08:38:24;;;;;;;13.57;7.65;;;13.30;99.90;;;;;;5032151;28;20017;-81
2022/04/18 08:40:51;;;;;;;15.30;8.05;;;13.40;99.90;;;;;;5013459;28;20447;-83
2022/04/18 08:43:17;;;;;;;13.73;8.95;;;13.40;99.90;;;;;;5012427;28;20036;-82
2022/04/18 08:45:43;;;;;;;14.38;8.75;;;13.50;99.90;;;;;;5031377;28;20022;-82
2022/04/18 08:53:58;;;;;;;17.63;8.40;;;13.60;99.90;;;;;;4968479;28;20042;-82
2022/04/18 08:56:26;;;;;;;15.77;9.35;;;13.60;99.90;;;;;;4971056;28;20454;-82
2022/04/18 08:58:51;;;;;;;15.05;9.30;;;13.50;99.90;;;;;;4958646;28;20040;-83
2022/04/18 09:01:17;;;;;;;13.45;8.48;;;13.60;99.90;;;;;;4935558;29;20042;-82
2022/04/18 09:03:43;;;;;;;13.30;9.35;;;13.50;99.90;;;;;;4970919;28;20578;-80
2022/04/18 09:06:11;;;;;;;14.52;8.57;;;13.70;99.90;;;;;;4961508;28;20078;-82
2022/04/18 09:08:43;;;;;;;18.58;9.07;;;13.80;99.90;;;;;;4966585;28;20522;-79
2022/04/18 09:11:09;;;;;;;15.15;9.13;;;13.50;99.90;;;;;;4971301;28;20031;-81
2022/04/18 09:13:42;;;;;;;15.77;9.85;;;13.50;99.90;;;;;;4971469;28;20035;-81
2022/04/18 09:16:15;;;;;;;15.48;8.60;;;13.60;99.90;;;;;;4969054;28;20149;-81
2022/04/18 09:18:42;;;;;;;18.60;9.23;;;13.90;99.90;;;;;;4970917;28;20121;-81
2022/04/18 09:21:08;;;;;;;16.65;9.77;;;13.80;99.90;;;;;;4971042;28;20031;-81
2022/04/18 09:23:35;;;;;;;17.42;10.07;;;13.90;99.90;;;;;;4954619;28;20085;-80
2022/04/18 09:26:03;;;;;;;16.98;10.05;;;13.80;99.90;;;;;;4974040;28;20035;-82
2022/04/18 09:28:33;;;;;;;19.23;10.02;;;13.80;99.90;;;;;;4987765;28;20065;-82
2022/04/18 09:31:02;;;;;;;17.02;9.93;;;13.70;99.90;;;;;;5015721;28;20049;-81
2022/04/18 09:33:30;;;;;;;20.30;9.98;;;13.80;99.90;;;;;;5016918;28;20033;-79
2022/04/18 09:36:09;;;;;;;16.92;9.48;;;14.00;99.90;;;;;;5035176;28;20116;-84
2022/04/18 09:38:44;;;;;;;18.00;10.30;;;13.90;99.90;;;;;;5017255;28;20377;-81
2022/04/18 09:41:13;;;;;;;15.00;9.55;;;13.90;99.90;;;;;;5035709;28;20018;-80
2022/04/18 09:43:45;;;;;;;21.73;10.07;;;14.10;99.90;;;;;;5035288;28;20030;-82
2022/04/18 09:46:12;;;;;;;18.05;11.00;;;14.10;99.90;;;;;;5035740;28;20080;-78
2022/04/18 09:48:39;;;;;;;20.90;12.27;;;14.10;99.90;;;;;;5035281;28;20427;-82
2022/04/18 09:51:12;;;;;;;18.23;9.93;;;14.30;99.90;;;;;;5034804;28;20445;-83
2022/04/18 09:53:40;;;;;;;18.55;9.45;;;14.30;99.90;;;;;;5035044;28;20548;-83
2022/04/18 09:56:07;;;;;;;14.55;10.18;;;14.40;99.90;;;;;;5035294;28;20100;-82
2022/04/18 09:58:33;;;;;;;18.95;11.30;;;14.40;99.90;;;;;;5033310;28;20029;-82
2022/04/18 10:01:02;;;;;;;14.77;9.25;;;14.30;99.90;;;;;;5035081;28;20497;-83
2022/04/18 10:03:28;;;;;;;17.58;10.25;;;14.20;99.90;;;;;;5034289;28;20029;-82
2022/04/18 10:05:55;;;;;;;18.63;11.02;;;14.00;99.90;;;;;;5043477;28;20370;-82
2022/04/18 10:08:21;;;;;;;16.88;10.32;;;13.90;99.90;;;;;;5054660;28;20023;-82
2022/04/18 10:10:48;;;;;;;17.25;10.80;;;13.90;99.90;;;;;;5054902;28;20021;-83
2022/04/18 10:13:14;;;;;;;16.90;10.70;;;13.90;99.90;;;;;;5018752;28;20048;-83
2022/04/18 10:15:40;;;;;;;16.95;10.30;;;14.10;99.90;;;;;;5016947;28;20535;-82
2022/04/18 10:18:09;;;;;;;19.15;10.60;;;14.20;99.90;;;;;;5034682;28;20056;-82
2022/04/18 10:20:55;;;;;;;14.80;9.45;;;14.40;99.90;;;;;;5034584;28;20047;-82
2022/04/18 16:22:33;;;;;;;5.95;3.45;;;18.10;91.60;;;;;;5293023;23;19923;-83
2022/04/18 16:24:59;;;;;;;5.53;3.13;;;18.30;91.50;;;;;;4963497;28;20042;-90
2022/04/18 16:27:24;;;;;;;7.68;2.85;;;18.30;91.30;;;;;;4953488;28;20399;-80
2022/04/18 16:32:34;;;;;;;7.63;2.80;;;18.20;91.20;;;;;;4949095;28;20093;-81
2022/04/18 16:35:00;;;;;;;5.15;2.70;;;18.10;91.20;;;;;;4957127;28;20475;-80
2022/04/18 16:37:25;;;;;;;5.45;2.80;;;18.30;91.00;;;;;;4958581;29;20403;-81
2022/04/18 16:39:53;;;;;;;4.93;2.80;;;18.40;90.70;;;;;;4958310;28;20397;-81
2022/04/18 16:47:47;;;;;;;9.88;3.55;;;18.40;91.40;;;;;;4965307;28;20037;-81
2022/04/18 16:50:14;;;;;;;7.00;2.85;;;18.30;91.40;;;;;;4973839;28;20113;-82
2022/04/18 16:52:40;;;;;;;4.90;3.00;;;18.20;91.20;;;;;;4967378;28;20030;-82
2022/04/18 16:55:06;;;;;;;5.47;2.70;;;18.20;91.10;;;;;;4958040;28;20044;-82
2022/04/18 16:57:32;;;;;;;6.47;2.95;;;18.00;90.80;;;;;;4958234;28;20123;-83
2022/04/18 17:00:00;;;;;;;5.00;3.00;;;18.00;91.70;;;;;;4962543;28;20105;-80
2022/04/18 17:02:25;;;;;;;4.30;2.70;;;18.00;90.90;;;;;;4976039;28;20390;-82
2022/04/18 17:04:51;;;;;;;7.85;3.15;;;17.90;90.50;;;;;;4960292;28;20078;-84
2022/04/18 17:07:17;;;;;;;3.97;2.67;;;17.90;91.40;;;;;;4962669;28;20495;-84
2022/04/18 17:09:43;;;;;;;7.40;2.80;;;17.80;90.70;;;;;;4941328;28;20083;-84
2022/04/18 17:12:09;;;;;;;9.05;3.30;;;17.80;90.90;;;;;;4938718;29;20047;-84
2022/04/18 17:14:35;;;;;;;8.38;2.60;;;17.70;91.10;;;;;;4975263;28;20030;-84
2022/04/18 17:17:00;;;;;;;6.13;2.90;;;17.70;91.10;;;;;;4975813;28;20417;-81
2022/04/18 17:19:26;;;;;;;5.15;2.70;;;17.60;91.30;;;;;;4967998;28;20038;-86
2022/04/18 17:21:53;;;;;;;9.68;2.63;;;17.60;90.80;;;;;;4972278;28;20074;-81
2022/04/18 17:24:20;;;;;;;7.43;2.50;;;17.60;91.60;;;;;;4957547;28;20034;-83
2022/04/18 17:26:46;;;;;;;10.38;3.30;;;17.60;91.80;;;;;;4963137;28;20561;-78
2022/04/18 17:29:13;;;;;;;17.60;3.33;;;17.40;92.40;;;;;;4959086;28;20114;-78
2022/04/18 17:31:39;;;;;;;5.82;2.90;;;17.50;92.50;;;;;;4956270;28;20023;-80
2022/04/18 17:34:05;;;;;;;8.77;2.83;;;17.40;92.40;;;;;;4964086;28;20023;-78
2022/04/18 17:36:33;;;;;;;7.50;2.53;;;17.30;92.60;;;;;;4958707;28;20170;-78
2022/04/18 17:38:59;;;;;;;4.10;2.78;;;17.20;92.40;;;;;;4968763;28;20066;-77
2022/04/18 17:41:25;;;;;;;5.95;2.60;;;17.10;92.60;;;;;;4937975;29;20028;-77
2022/04/18 17:43:51;;;;;;;4.82;2.60;;;17.00;92.70;;;;;;4961850;28;20246;-77
2022/04/18 17:46:17;;;;;;;8.45;2.90;;;17.00;92.50;;;;;;4964175;28;20031;-78
2022/04/18 17:48:43;;;;;;;5.50;2.90;;;16.90;92.20;;;;;;4964595;28;20019;-78
2022/04/18 17:51:10;;;;;;;5.13;2.95;;;16.90;92.30;;;;;;4964772;28;20026;-75
2022/04/18 17:56:20;;;;;;;7.88;3.17;;;16.80;93.10;;;;;;4961098;28;20030;-86
2022/04/18 17:58:46;;;;;;;4.90;2.80;;;16.70;93.20;;;;;;4964437;28;20039;-83
2022/04/18 18:01:12;;;;;;;6.97;2.88;;;16.60;93.30;;;;;;4955198;28;20029;-83
2022/04/18 18:03:38;;;;;;;4.70;2.75;;;16.60;93.60;;;;;;4957064;28;20035;-87
2022/04/18 18:06:04;;;;;;;6.53;2.55;;;16.50;93.80;;;;;;4972266;28;20434;-85
2022/04/18 18:08:30;;;;;;;5.30;2.95;;;16.50;93.90;;;;;;4964984;28;20538;-83
2022/04/18 18:10:56;;;;;;;6.80;3.10;;;16.50;94.10;;;;;;4955910;28;20026;-78
2022/04/18 18:13:22;;;;;;;4.30;2.65;;;16.40;94.00;;;;;;4956253;28;20094;-85
2022/04/18 18:15:48;;;;;;;4.78;2.75;;;16.30;94.30;;;;;;4960628;28;20082;-84
2022/04/18 18:18:14;;;;;;;7.20;2.63;;;16.30;94.80;;;;;;4960387;28;20027;-85
2022/04/18 18:20:39;;;;;;;6.25;2.95;;;16.20;94.80;;;;;;4956924;28;20027;-85
2022/04/18 18:23:06;;;;;;;6.45;3.15;;;16.10;94.90;;;;;;4960304;28;20082;-84
2022/04/18 18:25:32;;;;;;;4.68;2.78;;;16.20;95.00;;;;;;4971059;28;20031;-83
2022/04/18 18:27:58;;;;;;;4.70;2.70;;;16.10;95.10;;;;;;4964946;28;20023;-83
2022/04/18 18:30:24;;;;;;;5.25;3.10;;;16.00;95.50;;;;;;4965347;28;20105;-83
2022/04/18 18:32:51;;;;;;;6.65;3.17;;;15.90;95.50;;;;;;4955465;28;21026;-83
2022/04/18 18:35:17;;;;;;;5.10;2.65;;;15.90;96.00;;;;;;4969690;28;20030;-83
2022/04/18 18:37:42;;;;;;;9.40;3.05;;;15.80;96.10;;;;;;4971964;28;20031;-82
2022/04/18 18:40:09;;;;;;;6.43;3.22;;;15.80;96.00;;;;;;4959434;28;20026;-84
2022/04/18 18:42:38;;;;;;;8.93;4.20;;;15.70;96.10;;;;;;4967126;28;20395;-84
2022/04/18 18:45:05;;;;;;;7.85;3.92;;;15.60;96.60;;;;;;4967774;28;20026;-83
2022/04/18 18:47:31;;;;;;;8.30;4.05;;;15.40;97.00;;;;;;4953432;28;20439;-81
2022/04/18 18:52:42;;;;;;;11.13;4.25;;;15.40;97.70;;;;;;4942249;29;20155;-89
2022/04/18 18:55:11;;;;;;;5.68;3.22;;;15.40;97.90;;;;;;4944561;28;20106;-84
2022/04/18 18:57:40;;;;;;;5.65;3.60;;;15.30;98.20;;;;;;4956129;28;20157;-89
2022/04/18 19:00:07;;;;;;;6.45;3.40;;;15.20;97.90;;;;;;4957933;28;20059;-90
2022/04/18 19:02:36;;;;;;;11.38;3.33;;;15.10;98.50;;;;;;4964824;28;20050;-91